Time;durP1;ratioP1;P1;durP2;ratioP2;P2;SDS_P1;SDS_P2;PMS_P1;PMS_P2;Temp;Humidity;BMP_temperature;BMP_pressure;BME280_temperature;BME280_humidity;BME280_pressure;Samples;Min_cycle;Max_cycle;Signal;HPM_P1;HPM_P2
2023/01/12 00:03:07;;;;;;;22.17;8.10;;;1.50;99.90;;;-1.10;100.00;100501.31;10476079;28;20116;-80
2023/01/12 00:08:10;;;;;;;19.83;7.90;;;1.40;99.90;;;-1.15;100.00;100509.41;10445113;28;20057;-80
2023/01/12 00:13:13;;;;;;;20.50;8.30;;;1.30;99.90;;;-1.19;100.00;100502.69;10445468;28;20089;-80
2023/01/12 00:18:16;;;;;;;25.77;10.10;;;1.30;99.90;;;-1.22;100.00;100512.44;10475377;28;20061;-80
2023/01/12 00:23:20;;;;;;;23.20;9.17;;;1.30;99.90;;;-1.22;100.00;100512.44;10447349;28;20148;-79
2023/01/12 00:28:23;;;;;;;25.07;9.07;;;1.30;99.90;;;-1.20;100.00;100521.00;10428410;28;20096;-80
2023/01/12 00:33:26;;;;;;;33.73;12.27;;;1.30;99.90;;;-1.10;100.00;100527.41;10419898;28;20462;-80
2023/01/12 00:38:29;;;;;;;36.07;13.00;;;1.40;99.90;;;-0.95;100.00;100529.16;10445702;28;20061;-80
2023/01/12 00:48:54;;;;;;;28.10;12.30;;;1.70;99.90;;;-0.67;100.00;100527.59;10465547;28;20073;-80
2023/01/12 00:54:03;;;;;;;31.03;13.30;;;1.80;99.90;;;-0.56;100.00;100525.19;10488155;28;21552;-79
2023/01/12 00:59:06;;;;;;;33.43;14.37;;;1.90;99.90;;;-0.44;100.00;100516.66;10458625;28;20137;-80
2023/01/12 01:04:09;;;;;;;29.00;13.97;;;2.00;99.90;;;-0.32;100.00;100520.31;10464415;28;20514;-79
2023/01/12 01:09:12;;;;;;;30.27;13.07;;;2.10;99.90;;;-0.18;100.00;100532.53;10444277;28;20120;-80
2023/01/12 01:14:16;;;;;;;28.83;13.87;;;2.30;99.90;;;-0.10;100.00;100523.34;10462996;28;20066;-79
2023/01/12 01:19:19;;;;;;;29.33;14.30;;;2.40;99.90;;;0.00;100.00;100526.25;10457404;28;20064;-80
2023/01/12 01:24:22;;;;;;;24.30;11.67;;;2.50;99.90;;;0.10;100.00;100544.81;10421168;28;20065;-80
2023/01/12 01:29:25;;;;;;;20.03;9.73;;;2.60;99.90;;;0.18;100.00;100539.94;10422112;28;20415;-80
2023/01/12 01:34:28;;;;;;;18.10;9.73;;;2.70;99.90;;;0.25;100.00;100536.88;10442906;28;20058;-78
2023/01/12 01:39:31;;;;;;;23.10;10.47;;;2.80;99.90;;;0.35;100.00;100544.16;10427109;28;20077;-80
2023/01/12 01:44:49;;;;;;;28.03;11.37;;;2.80;99.90;;;0.42;100.00;100542.81;10476042;28;20057;-78
2023/01/12 01:49:55;;;;;;;19.87;10.17;;;2.90;99.90;;;0.47;100.00;100541.63;10478074;28;20053;-79
2023/01/12 01:55:32;;;;;;;27.83;11.73;;;2.90;99.90;;;0.54;100.00;100552.56;10442274;28;20068;-78
2023/01/12 02:00:38;;;;;;;22.13;9.83;;;3.00;99.90;;;0.57;100.00;100554.13;10473369;28;20160;-80
2023/01/12 02:05:45;;;;;;;20.73;10.60;;;3.00;99.90;;;0.60;100.00;100546.94;10425830;28;20061;-78
2023/01/12 02:10:52;;;;;;;24.43;11.40;;;3.10;99.90;;;0.63;100.00;100554.59;10430252;28;20164;-80
2023/01/12 02:16:22;;;;;;;25.47;11.90;;;3.10;99.90;;;0.71;100.00;100567.19;10427886;28;20144;-80
2023/01/12 02:21:43;;;;;;;26.50;13.10;;;3.10;99.90;;;0.77;100.00;100558.94;10437590;28;20068;-78
2023/01/12 02:27:17;;;;;;;25.27;12.33;;;3.20;99.90;;;0.83;100.00;100555.09;10424253;28;20061;-78
2023/01/12 02:32:43;;;;;;;29.93;14.03;;;3.20;99.90;;;0.87;100.00;100556.59;10443253;28;20092;-77
2023/01/12 02:38:45;;;;;;;28.93;13.47;;;3.30;99.90;;;0.87;100.00;100549.59;10441798;28;20566;-78
2023/01/12 02:43:49;;;;;;;23.57;12.00;;;3.30;99.90;;;0.92;100.00;100557.16;10395660;28;20065;-78
2023/01/12 02:49:09;;;;;;;30.33;13.90;;;3.40;99.90;;;0.95;100.00;100543.84;10442804;28;20144;-78
2023/01/12 02:54:17;;;;;;;20.00;10.73;;;3.40;99.90;;;0.91;100.00;100540.63;10452399;28;20115;-78
2023/01/12 02:59:32;;;;;;;21.27;10.43;;;3.40;99.90;;;0.84;100.00;100541.94;10448845;28;20061;-78
2023/01/12 03:04:35;;;;;;;24.87;11.90;;;3.20;99.90;;;0.74;100.00;100549.53;10448180;28;20060;-78
2023/01/12 03:09:49;;;;;;;20.63;10.20;;;3.10;99.90;;;0.64;100.00;100556.25;10456062;28;20092;-78
2023/01/12 03:14:54;;;;;;;24.30;12.10;;;3.00;99.90;;;0.55;100.00;100535.09;10443786;28;20070;-78
2023/01/12 03:20:14;;;;;;;22.40;10.87;;;2.90;99.90;;;0.57;100.00;100530.59;10459952;28;20056;-79
2023/01/12 03:25:19;;;;;;;19.10;9.37;;;2.90;99.90;;;0.59;100.00;100526.94;10478192;28;20093;-78
2023/01/12 03:30:41;;;;;;;18.67;10.20;;;2.90;99.90;;;0.64;100.00;100522.25;10449163;28;20057;-78
2023/01/12 03:36:11;;;;;;;19.88;10.40;;;3.00;99.90;;;0.68;100.00;100521.13;10425878;28;20064;-79
2023/01/12 03:41:29;;;;;;;19.90;10.20;;;3.10;99.90;;;0.72;100.00;100521.75;10455346;28;20092;-78
2023/01/12 03:46:41;;;;;;;19.47;9.93;;;3.10;99.90;;;0.74;100.00;100512.91;10450596;28;20395;-78
2023/01/12 03:51:47;;;;;;;21.95;10.95;;;3.20;99.90;;;0.82;100.00;100519.41;10433564;28;20085;-78
2023/01/12 03:56:53;;;;;;;39.80;15.57;;;3.20;99.90;;;0.84;100.00;100507.06;10448172;28;20461;-78
2023/01/12 04:01:56;;;;;;;24.43;11.97;;;3.30;99.90;;;0.88;100.00;100513.78;10459356;28;20081;-78
2023/01/12 04:06:59;;;;;;;39.30;16.23;;;3.30;99.90;;;0.89;100.00;100512.84;10481558;28;20061;-78
2023/01/12 04:12:10;;;;;;;21.63;9.63;;;3.30;99.90;;;0.95;100.00;100515.06;10424994;28;20072;-79
2023/01/12 04:17:13;;;;;;;55.30;17.10;;;3.40;99.90;;;0.99;100.00;100511.31;10424349;28;20069;-79
2023/01/12 04:27:49;;;;;;;40.50;16.33;;;3.40;99.90;;;1.06;100.00;100523.06;10438677;28;20062;-79
2023/01/12 04:32:54;;;;;;;28.83;11.97;;;3.40;99.90;;;1.10;100.00;100518.50;10444950;28;20088;-78
2023/01/12 04:37:57;;;;;;;35.17;15.77;;;3.50;99.90;;;1.13;100.00;100505.19;10455938;28;20057;-79
2023/01/12 04:43:00;;;;;;;25.10;12.27;;;3.50;99.90;;;1.13;100.00;100511.25;10443160;28;20057;-78
2023/01/12 04:48:06;;;;;;;32.20;15.00;;;3.60;99.90;;;1.15;100.00;100519.03;10459137;28;20084;-79
2023/01/12 04:53:11;;;;;;;28.70;13.13;;;3.50;99.90;;;1.16;100.00;100523.34;10475798;28;20167;-78
2023/01/12 04:58:14;;;;;;;23.77;11.90;;;3.50;99.90;;;1.17;100.00;100531.06;10441332;28;20066;-79
2023/01/12 05:03:17;;;;;;;21.50;11.73;;;3.60;99.90;;;1.18;100.00;100535.38;10444538;28;20057;-79
2023/01/12 05:13:42;;;;;;;28.50;13.13;;;3.60;99.90;;;1.15;100.00;100550.44;10453303;28;20057;-78
2023/01/12 05:18:45;;;;;;;23.63;12.00;;;3.60;99.90;;;1.15;100.00;100543.44;10476826;28;20064;-78
2023/01/12 05:23:51;;;;;;;28.30;13.43;;;3.60;99.90;;;1.16;100.00;100549.50;10444734;28;21839;-79
2023/01/12 05:28:54;;;;;;;24.20;12.93;;;3.50;99.90;;;1.13;100.00;100555.75;10455018;28;20071;-79
2023/01/12 05:33:56;;;;;;;32.80;14.70;;;3.50;99.90;;;1.05;100.00;100552.81;10437164;28;20107;-79
2023/01/12 05:39:00;;;;;;;28.97;13.03;;;3.40;99.90;;;1.03;100.00;100550.28;10417693;28;20065;-78
2023/01/12 05:44:03;;;;;;;32.17;14.90;;;3.40;99.90;;;1.05;100.00;100555.44;10420847;28;20068;-79
2023/01/12 05:49:06;;;;;;;29.90;15.30;;;3.40;99.90;;;1.08;100.00;100560.47;10461287;28;20089;-78
2023/01/12 05:54:09;;;;;;;26.93;14.27;;;3.40;99.90;;;1.09;100.00;100549.06;10456518;28;20057;-78
2023/01/12 05:59:12;;;;;;;27.27;15.13;;;3.40;99.90;;;1.10;100.00;100545.50;10440417;28;20080;-78
2023/01/12 06:04:15;;;;;;;32.70;17.47;;;3.50;99.90;;;1.12;100.00;100554.09;10438854;28;20584;-83
2023/01/12 06:09:18;;;;;;;41.83;18.67;;;3.50;99.90;;;1.13;100.00;100547.91;10407521;28;20070;-83
2023/01/12 06:14:21;;;;;;;40.27;17.23;;;3.50;99.90;;;1.13;100.00;100544.47;10457904;28;20111;-83
2023/01/12 06:19:24;;;;;;;34.33;16.93;;;3.50;99.90;;;1.17;100.00;100562.50;10433603;28;20061;-78
2023/01/12 06:24:27;;;;;;;29.07;14.93;;;3.60;99.90;;;1.22;100.00;100556.97;10424000;28;20144;-79
2023/01/12 06:29:30;;;;;;;32.47;18.47;;;3.60;99.90;;;1.24;100.00;100566.38;10433851;28;20502;-80
2023/01/12 06:34:34;;;;;;;40.80;21.33;;;3.60;99.90;;;1.27;100.00;100573.22;10423229;28;20060;-79
2023/01/12 06:39:37;;;;;;;37.60;17.83;;;3.70;99.90;;;1.28;100.00;100572.28;10469495;28;20503;-79
2023/01/12 06:44:40;;;;;;;32.63;17.13;;;3.70;99.90;;;1.32;100.00;100577.22;10446333;28;20057;-79
2023/01/12 06:49:43;;;;;;;36.90;18.10;;;3.70;99.90;;;1.33;100.00;100578.06;10464729;28;20068;-80
2023/01/12 06:54:46;;;;;;;33.93;17.90;;;3.70;99.90;;;1.33;100.00;100593.75;10457907;28;20060;-79
2023/01/12 06:59:49;;;;;;;32.53;17.03;;;3.70;99.90;;;1.33;100.00;100606.84;10425824;28;20057;-79
2023/01/12 07:04:52;;;;;;;40.67;18.97;;;3.70;99.90;;;1.37;100.00;100610.09;10441065;28;20069;-79
2023/01/12 07:09:56;;;;;;;43.70;20.23;;;3.80;99.90;;;1.40;100.00;100616.00;10457864;28;20072;-79
2023/01/12 07:14:59;;;;;;;40.93;20.97;;;3.80;99.90;;;1.43;100.00;100626.25;10410909;28;20511;-79
2023/01/12 07:20:02;;;;;;;51.27;24.93;;;3.80;99.90;;;1.48;100.00;100618.09;10457673;28;20071;-79
2023/01/12 07:25:05;;;;;;;43.57;21.00;;;3.90;99.90;;;1.55;100.00;100622.00;10436555;28;20465;-79
2023/01/12 07:30:09;;;;;;;42.63;22.93;;;3.90;99.90;;;1.60;100.00;100618.16;10473962;28;20414;-78
2023/01/12 07:35:12;;;;;;;48.70;22.77;;;4.00;99.90;;;1.66;100.00;100632.63;10457333;28;20069;-78
2023/01/12 07:40:16;;;;;;;46.43;23.07;;;4.10;99.90;;;1.71;100.00;100637.56;10459384;28;20068;-79
2023/01/12 07:45:19;;;;;;;35.87;19.10;;;4.10;99.90;;;1.81;100.00;100634.25;10463675;28;20061;-79
2023/01/12 07:50:24;;;;;;;46.30;21.17;;;4.20;99.90;;;1.90;100.00;100642.44;10445852;28;20061;-79
2023/01/12 07:55:29;;;;;;;52.50;23.80;;;4.30;99.90;;;1.97;100.00;100633.22;10446489;28;20577;-79
2023/01/12 08:00:33;;;;;;;45.13;19.63;;;4.40;99.90;;;2.09;100.00;100637.63;10479813;28;20053;-79
2023/01/12 08:05:37;;;;;;;45.50;23.13;;;4.50;99.90;;;2.22;100.00;100646.38;10445651;28;20108;-79
2023/01/12 08:10:42;;;;;;;42.13;22.37;;;4.60;99.90;;;2.36;100.00;100645.44;10442161;28;20176;-79
2023/01/12 08:15:48;;;;;;;43.30;23.57;;;4.70;99.90;;;2.49;100.00;100648.91;10405963;28;20085;-79
2023/01/12 08:20:56;;;;;;;35.33;18.67;;;4.90;99.90;;;2.67;100.00;100637.13;10430843;28;20061;-78
2023/01/12 08:26:05;;;;;;;37.07;21.30;;;5.00;99.90;;;2.82;100.00;100639.63;10478969;28;20061;-78
2023/01/12 08:31:12;;;;;;;38.13;20.13;;;5.20;99.90;;;2.99;100.00;100643.69;10446023;28;20064;-78
2023/01/12 08:36:16;;;;;;;34.90;18.97;;;5.30;99.90;;;3.16;100.00;100648.59;10446885;28;20143;-78
2023/01/12 08:41:31;;;;;;;36.23;20.53;;;5.50;99.90;;;3.31;100.00;100644.03;10462411;28;20061;-78
2023/01/12 08:46:50;;;;;;;39.27;20.43;;;5.60;99.90;;;3.42;100.00;100639.69;10461510;28;20061;-78
2023/01/12 08:51:54;;;;;;;32.03;17.63;;;5.70;99.90;;;3.70;100.00;100635.88;10477468;28;20061;-79
2023/01/12 08:56:57;;;;;;;24.80;13.03;;;5.90;99.90;;;4.02;100.00;100624.78;10427685;28;20069;-78
2023/01/12 09:02:01;;;;;;;21.07;11.67;;;6.20;99.90;;;4.39;100.00;100614.91;10440310;28;20057;-78
2023/01/12 09:07:09;;;;;;;29.47;14.87;;;6.50;99.90;;;4.66;100.00;100632.97;10460766;28;20470;-78
2023/01/12 09:12:12;;;;;;;23.77;13.00;;;6.80;99.90;;;4.75;100.00;100627.00;10460294;28;20069;-78
2023/01/12 09:17:14;;;;;;;22.37;11.77;;;6.90;99.90;;;4.84;100.00;100614.91;10462018;28;20061;-78
2023/01/12 09:22:17;;;;;;;16.57;8.87;;;7.00;99.90;;;4.98;100.00;100616.47;10494759;28;20057;-78
2023/01/12 09:27:20;;;;;;;18.80;7.80;;;7.10;99.90;;;5.15;100.00;100612.47;10443519;28;20065;-78
2023/01/12 09:32:23;;;;;;;18.20;8.50;;;7.30;99.90;;;5.27;100.00;100616.75;10494497;28;20069;-79
2023/01/12 09:37:39;;;;;;;16.23;7.77;;;7.50;99.90;;;5.34;100.00;100621.41;10444899;28;20068;-78
2023/01/12 09:48:12;;;;;;;12.20;6.83;;;7.70;99.90;;;5.58;100.00;100605.41;10460322;28;20087;-78
2023/01/12 09:53:32;;;;;;;12.63;6.90;;;7.90;99.90;;;5.93;100.00;100606.09;10459420;28;20069;-78
2023/01/12 09:59:02;;;;;;;11.20;5.97;;;8.20;99.90;;;6.14;100.00;100602.50;10402713;28;20427;-78
2023/01/12 10:04:07;;;;;;;15.17;6.90;;;8.40;99.90;;;6.25;100.00;100601.63;10427076;28;20096;-78
2023/01/12 10:09:19;;;;;;;12.90;6.40;;;8.50;99.90;;;6.27;100.00;100601.47;10443049;28;20057;-78
2023/01/12 10:15:01;;;;;;;18.40;8.87;;;8.50;99.90;;;6.19;100.00;100596.84;10442653;28;20434;-78
2023/01/12 10:20:10;;;;;;;11.82;6.88;;;8.40;99.90;;;6.22;100.00;100593.09;10441940;28;20065;-78
2023/01/12 10:25:35;;;;;;;13.97;7.23;;;8.40;99.90;;;6.15;100.00;100591.00;10447187;28;20061;-78
2023/01/12 10:30:39;;;;;;;14.57;7.83;;;8.40;99.90;;;6.13;100.00;100594.75;10458951;28;20116;-79
2023/01/12 10:36:02;;;;;;;14.70;7.17;;;8.30;99.90;;;6.16;100.00;100589.19;10411917;28;20068;-77
2023/01/12 10:41:21;;;;;;;12.50;6.33;;;8.30;99.90;;;6.22;100.00;100585.19;10426658;28;20268;-79
2023/01/12 10:46:31;;;;;;;10.97;5.90;;;8.40;99.90;;;6.26;100.00;100583.97;10442902;28;20515;-79
2023/01/12 10:51:37;;;;;;;10.33;5.63;;;8.50;99.90;;;6.24;100.00;100586.75;10441939;28;20531;-79
2023/01/12 10:57:00;;;;;;;11.40;6.63;;;8.40;99.90;;;6.23;100.00;100578.94;10425748;28;20065;-79
2023/01/12 11:02:12;;;;;;;11.67;6.57;;;8.40;99.90;;;6.20;100.00;100581.84;10421425;28;20155;-79
2023/01/12 11:07:27;;;;;;;10.93;6.13;;;8.40;99.90;;;6.18;100.00;100566.16;10446229;28;20113;-79
2023/01/12 11:12:38;;;;;;;12.43;6.73;;;8.40;99.90;;;6.31;100.00;100563.31;10455846;28;20084;-79
2023/01/12 11:18:21;;;;;;;9.90;4.72;;;8.50;99.90;;;6.59;100.00;100559.94;10421309;28;20057;-77
2023/01/12 11:23:48;;;;;;;7.32;3.40;;;8.70;99.90;;;6.79;100.00;100554.75;10459827;28;20062;-77
2023/01/12 11:28:57;;;;;;;7.90;3.80;;;8.90;99.90;;;6.91;99.57;100549.19;10453090;28;20061;-76
2023/01/12 11:34:22;;;;;;;9.17;4.40;;;9.00;99.90;;;6.94;97.57;100537.50;10477408;28;20112;-76
2023/01/12 11:39:29;;;;;;;9.50;5.53;;;9.10;99.90;;;6.86;96.59;100534.72;10436409;28;20065;-77
2023/01/12 11:44:49;;;;;;;9.83;5.70;;;9.00;99.90;;;6.67;95.19;100528.44;10448857;28;20058;-77
2023/01/12 11:50:17;;;;;;;15.13;6.87;;;8.90;99.90;;;6.58;95.52;100542.41;10463673;28;20053;-77
2023/01/12 11:55:49;;;;;;;13.07;6.47;;;8.80;99.90;;;6.50;95.35;100529.06;10448285;28;20061;-77
2023/01/12 12:01:44;;;;;;;10.37;5.37;;;8.70;99.90;;;6.47;95.38;100539.88;10462220;28;20092;-77
2023/01/12 12:07:44;;;;;;;11.47;5.03;;;8.70;99.90;;;6.49;95.32;100534.47;10438921;28;20057;-77
2023/01/12 12:13:52;;;;;;;31.67;14.20;;;8.70;99.90;;;6.54;95.30;100532.28;10384407;28;20108;-77
2023/01/12 12:19:25;;;;;;;13.97;6.40;;;8.70;99.90;;;6.63;95.67;100519.09;10447288;28;20088;-77
2023/01/12 12:25:01;;;;;;;7.20;4.20;;;8.80;99.90;;;6.75;96.24;100516.34;10462387;28;20057;-77
2023/01/12 12:30:55;;;;;;;20.13;11.33;;;9.00;99.90;;;6.87;96.46;100520.53;10445140;28;20537;-78
2023/01/12 12:36:10;;;;;;;30.87;14.33;;;9.10;99.90;;;6.93;95.80;100531.41;10446664;28;20073;-79
2023/01/12 12:47:44;;;;;;;13.40;7.20;;;9.10;99.90;;;6.49;93.30;100518.66;10462783;28;20057;-77
2023/01/12 12:53:01;;;;;;;12.97;7.60;;;8.90;99.90;;;6.26;93.73;100528.56;10458773;28;20065;-77
2023/01/12 12:58:27;;;;;;;13.30;7.80;;;8.60;99.90;;;6.04;94.01;100506.63;10477167;28;20057;-77
2023/01/12 13:03:39;;;;;;;22.07;10.87;;;8.40;99.90;;;5.88;94.54;100516.81;10478890;28;20136;-77
2023/01/12 13:08:42;;;;;;;20.30;10.70;;;8.20;99.90;;;5.72;95.35;100508.50;10453056;28;20063;-77
2023/01/12 13:14:16;;;;;;;17.70;9.83;;;8.00;99.90;;;5.66;95.93;100515.13;10459441;28;20069;-78
2023/01/12 13:19:43;;;;;;;33.63;14.23;;;7.90;99.90;;;5.68;96.64;100517.63;10446130;28;20151;-78
2023/01/12 13:24:46;;;;;;;78.87;24.17;;;7.90;99.90;;;5.70;97.28;100520.97;10453283;28;20148;-78
2023/01/12 13:29:49;;;;;;;15.50;7.73;;;7.90;99.90;;;5.80;97.79;100514.78;10454589;28;20163;-77
2023/01/12 13:34:52;;;;;;;12.30;6.63;;;8.00;99.90;;;5.88;97.93;100499.16;10442773;28;20581;-77
2023/01/12 13:40:20;;;;;;;44.43;14.87;;;8.00;99.90;;;5.98;97.59;100509.78;10425834;28;20144;-79
2023/01/12 13:45:23;;;;;;;15.30;7.00;;;8.10;99.90;;;5.99;97.79;100514.09;10457335;28;20144;-79
2023/01/12 13:50:28;;;;;;;12.33;5.33;;;8.20;99.90;;;5.98;98.10;100515.06;10460394;28;20085;-80
2023/01/12 13:55:34;;;;;;;19.63;8.90;;;8.20;99.90;;;5.96;97.83;100510.91;10444051;28;20053;-80
2023/01/12 14:00:38;;;;;;;16.33;7.93;;;8.20;99.90;;;5.94;98.21;100516.31;10435216;28;20066;-80
2023/01/12 14:06:23;;;;;;;13.53;6.63;;;8.20;99.90;;;5.89;98.23;100516.66;10461315;28;20068;-79
2023/01/12 14:11:57;;;;;;;10.67;5.07;;;8.20;99.90;;;5.87;98.49;100523.00;10460588;28;20137;-79
2023/01/12 14:22:28;;;;;;;10.77;4.90;;;8.10;99.90;;;5.73;97.96;100520.72;10483064;28;20069;-79
2023/01/12 14:27:32;;;;;;;6.80;4.47;;;8.00;99.90;;;5.64;97.81;100507.34;10453252;28;20092;-79
2023/01/12 14:32:35;;;;;;;6.20;4.33;;;7.90;99.90;;;5.50;97.86;100507.66;10458422;28;20068;-80
2023/01/12 14:37:38;;;;;;;8.13;4.43;;;7.80;99.90;;;5.32;97.41;100504.75;10458417;28;20072;-79
2023/01/12 14:48:27;;;;;;;13.33;6.80;;;7.40;99.90;;;4.80;97.68;100500.28;10455783;28;20068;-79
2023/01/12 14:53:39;;;;;;;16.17;7.97;;;7.20;99.90;;;4.57;98.22;100502.09;10457407;28;20108;-79
2023/01/12 14:58:45;;;;;;;17.97;9.70;;;6.90;99.90;;;4.30;98.50;100505.09;10470825;28;20057;-79
2023/01/12 15:03:49;;;;;;;19.03;10.63;;;6.60;99.90;;;4.03;98.95;100506.31;10482501;28;20053;-79
2023/01/12 15:09:01;;;;;;;13.43;7.40;;;6.40;99.90;;;3.81;99.42;100498.38;10424885;28;20058;-79
2023/01/12 15:14:18;;;;;;;15.30;7.40;;;6.20;99.90;;;3.66;100.00;100497.78;10422952;28;20120;-79
2023/01/12 15:30:05;;;;;;;19.67;11.20;;;5.80;99.90;;;3.45;100.00;100508.09;10419281;28;20066;-79
2023/01/12 15:35:25;;;;;;;18.37;9.97;;;5.70;99.90;;;3.27;100.00;100504.19;10447188;28;20506;-79
2023/01/12 15:40:28;;;;;;;17.00;8.30;;;5.60;99.90;;;3.06;100.00;100501.38;10475354;28;20065;-79
2023/01/12 15:45:39;;;;;;;17.70;8.37;;;5.40;99.90;;;2.91;100.00;100498.06;10437578;28;20054;-79
2023/01/12 15:50:44;;;;;;;27.73;11.40;;;5.30;99.90;;;2.78;100.00;100499.91;10440595;28;20061;-79
2023/01/12 15:55:47;;;;;;;28.20;12.17;;;5.20;99.90;;;2.71;100.00;100506.56;10442598;28;20058;-79
2023/01/12 16:00:51;;;;;;;24.20;12.00;;;5.10;99.90;;;2.67;100.00;100512.97;10440899;28;20092;-79
2023/01/12 16:05:54;;;;;;;28.80;13.83;;;5.00;99.90;;;2.63;100.00;100519.38;10402994;28;20526;-79
2023/01/12 16:11:10;;;;;;;40.73;18.63;;;5.00;99.90;;;2.53;100.00;100513.97;10450955;28;20057;-79
2023/01/12 16:16:16;;;;;;;30.50;15.47;;;4.90;99.90;;;2.44;100.00;100524.25;10476144;28;20426;-79
2023/01/12 16:21:21;;;;;;;33.33;14.63;;;4.80;99.90;;;2.35;100.00;100526.59;10430629;28;20062;-79
2023/01/12 16:26:26;;;;;;;26.27;12.30;;;4.70;99.90;;;2.28;100.00;100517.47;10495850;28;20089;-79
2023/01/12 16:31:30;;;;;;;25.97;12.57;;;4.60;99.90;;;2.19;100.00;100531.22;10477617;28;20196;-79
2023/01/12 16:36:33;;;;;;;23.77;11.63;;;4.50;99.90;;;2.13;100.00;100529.00;10421931;28;20065;-79
2023/01/12 16:41:36;;;;;;;27.37;12.40;;;4.50;99.90;;;2.08;100.00;100528.47;10435851;28;20088;-79
2023/01/12 16:46:39;;;;;;;19.27;9.63;;;4.40;99.90;;;2.03;100.00;100538.44;10444863;28;20144;-79
2023/01/12 16:51:42;;;;;;;24.00;12.50;;;4.40;99.90;;;1.93;100.00;100543.50;10436524;28;20072;-79
2023/01/12 16:56:46;;;;;;;26.37;12.93;;;4.30;99.90;;;1.78;100.00;100547.13;10455402;28;20061;-79
2023/01/12 17:01:50;;;;;;;37.43;17.50;;;4.20;99.90;;;1.65;100.00;100549.75;10475266;28;20068;-79
2023/01/12 17:06:53;;;;;;;40.27;19.20;;;4.10;99.90;;;1.52;100.00;100546.25;10470850;28;20061;-79
2023/01/12 17:11:58;;;;;;;41.70;16.97;;;3.90;99.90;;;1.44;100.00;100548.53;10426476;28;20116;-79
2023/01/12 17:17:06;;;;;;;50.07;19.53;;;3.80;99.90;;;1.33;100.00;100549.25;10433493;28;20061;-79
2023/01/12 17:22:10;;;;;;;56.07;22.43;;;3.70;99.90;;;1.18;100.00;100540.59;10407285;28;20507;-79
2023/01/12 17:27:13;;;;;;;58.27;22.30;;;3.60;99.90;;;1.05;100.00;100548.41;10477382;28;20069;-79
2023/01/12 17:32:17;;;;;;;54.03;21.10;;;3.50;99.90;;;0.92;100.00;100552.75;10477531;28;20058;-79
2023/01/12 17:37:20;;;;;;;41.53;16.30;;;3.40;99.90;;;0.80;100.00;100546.53;10459679;28;20068;-79
2023/01/12 17:47:44;;;;;;;50.85;21.63;;;3.10;99.90;;;0.59;100.00;100554.88;10456777;28;20114;-78
2023/01/12 17:52:47;;;;;;;54.43;24.37;;;3.00;99.90;;;0.51;100.00;100557.97;10460124;28;20068;-79
2023/01/12 17:57:51;;;;;;;72.40;29.03;;;3.00;99.90;;;0.44;100.00;100559.28;10448532;28;20498;-79
2023/01/12 18:02:54;;;;;;;50.30;22.60;;;2.90;99.90;;;0.37;100.00;100555.38;10446346;28;20057;-79
2023/01/12 18:07:57;;;;;;;48.20;18.20;;;2.80;99.90;;;0.25;100.00;100551.72;10460690;28;20511;-79
2023/01/12 18:13:00;;;;;;;37.13;16.93;;;2.70;99.90;;;0.23;100.00;100558.81;10472304;28;20144;-79
2023/01/12 18:18:03;;;;;;;39.57;16.57;;;2.70;99.90;;;0.18;100.00;100548.66;10459714;28;20153;-79
2023/01/12 18:23:06;;;;;;;36.63;15.87;;;2.60;99.90;;;0.14;100.00;100541.09;10458459;28;20503;-78
2023/01/12 18:28:09;;;;;;;26.53;12.90;;;2.60;99.90;;;0.11;100.00;100552.53;10458583;28;20058;-79
2023/01/12 18:33:12;;;;;;;43.80;19.27;;;2.60;99.90;;;0.09;100.00;100551.81;10462344;27;20058;-79
2023/01/12 18:38:15;;;;;;;34.67;16.50;;;2.50;99.90;;;0.05;100.00;100555.53;10429431;28;20064;-78
2023/01/12 18:43:18;;;;;;;35.37;15.37;;;2.50;99.90;;;-0.01;100.00;100555.91;10445228;28;20064;-79
2023/01/12 18:48:22;;;;;;;59.40;22.53;;;2.50;99.90;;;-0.03;100.00;100558.59;10449565;28;20068;-78
2023/01/12 18:53:31;;;;;;;51.97;22.40;;;2.40;99.90;;;-0.03;100.00;100555.16;10461125;28;20085;-78
2023/01/12 18:58:38;;;;;;;58.70;24.93;;;2.40;99.90;;;-0.06;100.00;100547.50;10453589;28;20061;-79
2023/01/12 19:03:40;;;;;;;90.83;32.13;;;2.40;99.90;;;-0.11;100.00;100544.34;10453231;28;20580;-78
2023/01/12 19:19:29;;;;;;;90.82;37.42;;;2.30;99.90;;;-0.13;100.00;100540.94;10479815;28;20057;-78
2023/01/12 19:29:54;;;;;;;89.17;36.47;;;2.30;99.90;;;-0.19;100.00;100536.09;10428066;28;20068;-77
2023/01/12 19:34:57;;;;;;;70.17;27.13;;;2.20;99.90;;;-0.27;100.00;100529.56;10439565;28;20053;-77
2023/01/12 19:40:25;;;;;;;77.27;31.10;;;2.20;99.90;;;-0.38;100.00;100511.06;10486866;28;20065;-77
2023/01/12 19:45:28;;;;;;;66.53;24.93;;;2.10;99.90;;;-0.45;100.00;100528.03;10436296;28;20057;-78
2023/01/12 19:50:33;;;;;;;62.03;24.73;;;2.00;99.90;;;-0.50;100.00;100517.00;10436221;28;20462;-78
2023/01/12 19:55:38;;;;;;;51.00;23.20;;;1.90;99.90;;;-0.55;100.00;100513.81;10413470;28;20050;-78
2023/01/12 20:00:46;;;;;;;42.77;19.60;;;1.90;99.90;;;-0.59;100.00;100520.16;10455847;28;20068;-79
2023/01/12 20:05:51;;;;;;;44.97;20.23;;;1.90;99.90;;;-0.62;100.00;100517.72;10431131;28;20117;-78
2023/01/12 20:10:56;;;;;;;43.77;20.27;;;1.80;99.90;;;-0.66;100.00;100513.59;10452231;28;20108;-78
2023/01/12 20:16:06;;;;;;;52.83;20.70;;;1.80;99.90;;;-0.70;100.00;100525.16;10446456;28;20510;-78
2023/01/12 20:21:11;;;;;;;56.60;22.10;;;1.80;99.90;;;-0.75;100.00;100519.38;10446344;28;20064;-78
2023/01/12 20:26:14;;;;;;;47.63;21.43;;;1.70;99.90;;;-0.78;100.00;100522.13;10429739;28;20107;-78
2023/01/12 20:31:19;;;;;;;41.57;18.23;;;1.70;99.90;;;-0.83;100.00;100528.47;10436214;28;20136;-79
2023/01/12 20:36:22;;;;;;;60.17;21.60;;;1.60;99.90;;;-0.89;100.00;100525.38;10441876;28;20068;-79
2023/01/12 20:41:25;;;;;;;70.50;26.63;;;1.60;99.90;;;-0.92;100.00;100533.38;10454221;28;20061;-78
2023/01/12 20:46:28;;;;;;;53.43;20.27;;;1.50;99.90;;;-0.95;100.00;100525.72;10465142;28;20057;-79
2023/01/12 20:51:31;;;;;;;45.40;18.53;;;1.50;99.90;;;-0.99;100.00;100530.25;10480664;28;20057;-78
2023/01/12 20:56:34;;;;;;;41.90;17.13;;;1.50;99.90;;;-1.03;100.00;100528.75;10427770;28;20418;-78
2023/01/12 21:01:37;;;;;;;45.40;17.43;;;1.50;99.90;;;-1.00;100.00;100533.81;10460079;28;20546;-78
2023/01/12 21:06:42;;;;;;;47.13;18.57;;;1.40;99.90;;;-0.81;100.00;100529.22;10494016;28;20061;-77
2023/01/12 21:11:46;;;;;;;50.67;18.23;;;1.60;99.90;;;-0.81;100.00;100525.78;10459464;28;20586;-78
2023/01/12 21:16:51;;;;;;;47.50;19.67;;;1.60;99.90;;;-0.87;100.00;100524.34;10427481;28;20073;-78
2023/01/12 21:21:54;;;;;;;54.60;22.80;;;1.60;99.90;;;-0.87;100.00;100539.16;10464773;28;20058;-79
2023/01/12 21:26:57;;;;;;;74.13;27.10;;;1.60;99.90;;;-0.91;100.00;100532.44;10463607;28;20152;-78
2023/01/12 21:32:00;;;;;;;76.10;29.07;;;1.60;99.90;;;-0.91;100.00;100525.44;10422592;28;20146;-78
2023/01/12 21:37:03;;;;;;;77.63;32.40;;;1.60;99.90;;;-0.88;100.00;100520.06;10421876;28;20062;-79
2023/01/12 21:47:27;;;;;;;58.17;26.53;;;1.60;99.90;;;-0.87;100.00;100529.56;10467306;28;20061;-78
2023/01/12 21:52:31;;;;;;;67.63;29.43;;;1.60;99.90;;;-0.88;100.00;100532.28;10463130;28;20057;-77
2023/01/12 21:57:35;;;;;;;69.97;30.70;;;1.60;99.90;;;-0.89;100.00;100535.81;10441858;28;20415;-79
2023/01/12 22:02:38;;;;;;;78.27;33.00;;;1.60;99.90;;;-0.91;100.00;100525.44;10442125;28;20088;-78
2023/01/12 22:07:41;;;;;;;77.60;32.13;;;1.60;99.90;;;-0.92;100.00;100528.97;10454577;28;20053;-78
2023/01/12 22:12:52;;;;;;;61.47;27.60;;;1.60;99.90;;;-0.89;100.00;100514.94;10476171;28;20087;-78
2023/01/12 22:17:56;;;;;;;65.72;28.42;;;1.60;99.90;;;-0.86;100.00;100520.81;10444964;28;20061;-78